sensor_id;sensor_type;location;lat;lon;timestamp;temperature;humidity
45207;DHT22;30950;53.086;21.576;2023-07-02T00:00:07;18.80;99.90
45207;DHT22;30950;53.086;21.576;2023-07-02T00:02:36;18.80;99.90
45207;DHT22;30950;53.086;21.576;2023-07-02T00:05:06;18.70;99.90
45207;DHT22;30950;53.086;21.576;2023-07-02T00:07:34;18.70;99.90
45207;DHT22;30950;53.086;21.576;2023-07-02T00:10:04;18.60;99.90
45207;DHT22;30950;53.086;21.576;2023-07-02T00:12:32;18.60;99.90
45207;DHT22;30950;53.086;21.576;2023-07-02T00:15:00;18.50;99.90
45207;DHT22;30950;53.086;21.576;2023-07-02T00:17:28;18.50;99.90
45207;DHT22;30950;53.086;21.576;2023-07-02T00:19:56;18.40;99.90
45207;DHT22;30950;53.086;21.576;2023-07-02T00:22:23;18.40;99.90
45207;DHT22;30950;53.086;21.576;2023-07-02T00:24:51;18.30;99.90
45207;DHT22;30950;53.086;21.576;2023-07-02T00:27:18;18.30;99.90
45207;DHT22;30950;53.086;21.576;2023-07-02T00:29:46;18.30;99.90
45207;DHT22;30950;53.086;21.576;2023-07-02T00:32:13;18.20;99.90
45207;DHT22;30950;53.086;21.576;2023-07-02T00:34:41;18.20;99.90
45207;DHT22;30950;53.086;21.576;2023-07-02T00:37:08;18.20;99.90
45207;DHT22;30950;53.086;21.576;2023-07-02T00:39:36;18.20;99.90
45207;DHT22;30950;53.086;21.576;2023-07-02T00:42:04;18.10;99.90
45207;DHT22;30950;53.086;21.576;2023-07-02T00:44:32;18.10;99.90
45207;DHT22;30950;53.086;21.576;2023-07-02T00:46:59;18.10;99.90
45207;DHT22;30950;53.086;21.576;2023-07-02T00:49:27;18.10;99.90
45207;DHT22;30950;53.086;21.576;2023-07-02T00:51:55;18.00;99.90
45207;DHT22;30950;53.086;21.576;2023-07-02T00:54:23;18.00;99.90
45207;DHT22;30950;53.086;21.576;2023-07-02T00:56:50;18.00;99.90
45207;DHT22;30950;53.086;21.576;2023-07-02T00:59:18;17.90;99.90
45207;DHT22;30950;53.086;21.576;2023-07-02T01:01:45;17.90;99.90
45207;DHT22;30950;53.086;21.576;2023-07-02T01:04:19;17.80;99.90
45207;DHT22;30950;53.086;21.576;2023-07-02T01:06:47;17.80;99.90
45207;DHT22;30950;53.086;21.576;2023-07-02T01:09:15;17.80;99.90
45207;DHT22;30950;53.086;21.576;2023-07-02T01:11:50;17.80;99.90
45207;DHT22;30950;53.086;21.576;2023-07-02T01:14:34;17.80;99.90
45207;DHT22;30950;53.086;21.576;2023-07-02T01:17:03;17.80;99.90
45207;DHT22;30950;53.086;21.576;2023-07-02T01:19:42;17.80;99.90
45207;DHT22;30950;53.086;21.576;2023-07-02T01:22:11;17.80;99.90
45207;DHT22;30950;53.086;21.576;2023-07-02T01:24:39;17.80;99.90
45207;DHT22;30950;53.086;21.576;2023-07-02T01:27:07;17.80;99.90
45207;DHT22;30950;53.086;21.576;2023-07-02T01:29:37;17.80;99.90
45207;DHT22;30950;53.086;21.576;2023-07-02T01:32:05;17.90;99.90
45207;DHT22;30950;53.086;21.576;2023-07-02T01:34:33;17.90;99.90
45207;DHT22;30950;53.086;21.576;2023-07-02T01:37:01;17.90;99.90
45207;DHT22;30950;53.086;21.576;2023-07-02T01:39:29;17.90;99.90
45207;DHT22;30950;53.086;21.576;2023-07-02T01:42:09;17.90;99.90
45207;DHT22;30950;53.086;21.576;2023-07-02T01:44:38;18.00;99.90
45207;DHT22;30950;53.086;21.576;2023-07-02T01:47:05;18.00;99.90
45207;DHT22;30950;53.086;21.576;2023-07-02T01:49:33;18.00;99.90
45207;DHT22;30950;53.086;21.576;2023-07-02T01:52:00;17.90;99.90
45207;DHT22;30950;53.086;21.576;2023-07-02T01:54:28;17.90;99.90
45207;DHT22;30950;53.086;21.576;2023-07-02T01:56:56;17.90;99.90
45207;DHT22;30950;53.086;21.576;2023-07-02T01:59:24;17.90;99.90
45207;DHT22;30950;53.086;21.576;2023-07-02T02:01:52;17.90;99.90
45207;DHT22;30950;53.086;21.576;2023-07-02T02:04:19;17.90;99.90
45207;DHT22;30950;53.086;21.576;2023-07-02T02:06:47;17.90;99.90
45207;DHT22;30950;53.086;21.576;2023-07-02T02:09:14;17.90;99.90
45207;DHT22;30950;53.086;21.576;2023-07-02T02:11:45;18.00;99.90
45207;DHT22;30950;53.086;21.576;2023-07-02T02:14:13;18.00;99.90
45207;DHT22;30950;53.086;21.576;2023-07-02T02:16:40;18.00;99.90
45207;DHT22;30950;53.086;21.576;2023-07-02T02:19:09;18.00;99.90
45207;DHT22;30950;53.086;21.576;2023-07-02T02:21:37;18.00;99.90
45207;DHT22;30950;53.086;21.576;2023-07-02T02:24:06;18.00;99.90
45207;DHT22;30950;53.086;21.576;2023-07-02T02:26:34;18.00;99.90
45207;DHT22;30950;53.086;21.576;2023-07-02T02:29:03;18.00;99.90
45207;DHT22;30950;53.086;21.576;2023-07-02T02:31:30;18.00;99.90
45207;DHT22;30950;53.086;21.576;2023-07-02T02:33:59;17.90;99.90
45207;DHT22;30950;53.086;21.576;2023-07-02T02:36:26;17.90;99.90
45207;DHT22;30950;53.086;21.576;2023-07-02T02:38:55;17.90;99.90
45207;DHT22;30950;53.086;21.576;2023-07-02T02:41:24;17.90;99.90
45207;DHT22;30950;53.086;21.576;2023-07-02T02:43:53;17.90;99.90
45207;DHT22;30950;53.086;21.576;2023-07-02T02:46:22;17.90;99.90
45207;DHT22;30950;53.086;21.576;2023-07-02T02:48:51;18.00;99.90
45207;DHT22;30950;53.086;21.576;2023-07-02T02:51:19;18.00;99.90
45207;DHT22;30950;53.086;21.576;2023-07-02T02:53:46;18.00;99.90
45207;DHT22;30950;53.086;21.576;2023-07-02T02:56:14;18.00;99.90
45207;DHT22;30950;53.086;21.576;2023-07-02T02:58:41;18.00;99.90
45207;DHT22;30950;53.086;21.576;2023-07-02T03:01:08;18.00;99.90
45207;DHT22;30950;53.086;21.576;2023-07-02T03:03:39;18.00;99.90
45207;DHT22;30950;53.086;21.576;2023-07-02T03:06:14;18.00;99.90
45207;DHT22;30950;53.086;21.576;2023-07-02T03:08:44;18.00;99.90
45207;DHT22;30950;53.086;21.576;2023-07-02T03:11:11;18.00;99.90
45207;DHT22;30950;53.086;21.576;2023-07-02T03:13:39;18.00;99.90
45207;DHT22;30950;53.086;21.576;2023-07-02T03:16:06;18.10;99.90
45207;DHT22;30950;53.086;21.576;2023-07-02T03:18:35;18.10;99.90
45207;DHT22;30950;53.086;21.576;2023-07-02T03:21:02;18.00;99.90
45207;DHT22;30950;53.086;21.576;2023-07-02T03:23:30;18.00;99.90
45207;DHT22;30950;53.086;21.576;2023-07-02T03:25:57;18.00;99.90
45207;DHT22;30950;53.086;21.576;2023-07-02T03:28:24;17.90;99.90
45207;DHT22;30950;53.086;21.576;2023-07-02T03:30:52;17.90;99.90
45207;DHT22;30950;53.086;21.576;2023-07-02T03:33:19;17.80;99.90
45207;DHT22;30950;53.086;21.576;2023-07-02T03:35:46;17.80;99.90
45207;DHT22;30950;53.086;21.576;2023-07-02T03:38:14;17.80;99.90
45207;DHT22;30950;53.086;21.576;2023-07-02T03:40:42;17.80;99.90
45207;DHT22;30950;53.086;21.576;2023-07-02T03:43:10;17.80;99.90
45207;DHT22;30950;53.086;21.576;2023-07-02T03:45:37;17.80;99.90
45207;DHT22;30950;53.086;21.576;2023-07-02T03:48:05;17.80;99.90
45207;DHT22;30950;53.086;21.576;2023-07-02T03:50:32;17.80;99.90
45207;DHT22;30950;53.086;21.576;2023-07-02T03:53:00;17.80;99.90
45207;DHT22;30950;53.086;21.576;2023-07-02T03:55:27;17.80;99.90
45207;DHT22;30950;53.086;21.576;2023-07-02T03:57:55;17.80;99.90
45207;DHT22;30950;53.086;21.576;2023-07-02T04:00:22;17.90;99.90
45207;DHT22;30950;53.086;21.576;2023-07-02T04:02:51;17.90;99.90
45207;DHT22;30950;53.086;21.576;2023-07-02T04:05:19;17.90;99.90
45207;DHT22;30950;53.086;21.576;2023-07-02T04:07:47;18.00;99.90
45207;DHT22;30950;53.086;21.576;2023-07-02T04:10:15;18.00;99.90
45207;DHT22;30950;53.086;21.576;2023-07-02T04:12:42;18.10;99.90
45207;DHT22;30950;53.086;21.576;2023-07-02T04:15:10;18.20;99.90
45207;DHT22;30950;53.086;21.576;2023-07-02T04:17:37;18.10;99.90
45207;DHT22;30950;53.086;21.576;2023-07-02T04:20:05;18.20;99.90
45207;DHT22;30950;53.086;21.576;2023-07-02T04:22:34;18.30;99.90
45207;DHT22;30950;53.086;21.576;2023-07-02T04:25:01;18.30;99.90
45207;DHT22;30950;53.086;21.576;2023-07-02T04:27:49;18.40;99.90
45207;DHT22;30950;53.086;21.576;2023-07-02T04:30:18;18.40;99.90
45207;DHT22;30950;53.086;21.576;2023-07-02T04:32:45;18.40;99.90
45207;DHT22;30950;53.086;21.576;2023-07-02T04:35:14;18.50;99.90
45207;DHT22;30950;53.086;21.576;2023-07-02T04:37:42;18.40;99.90
45207;DHT22;30950;53.086;21.576;2023-07-02T04:40:09;18.50;99.90
45207;DHT22;30950;53.086;21.576;2023-07-02T04:42:39;18.50;99.90
45207;DHT22;30950;53.086;21.576;2023-07-02T04:45:07;18.50;99.90
45207;DHT22;30950;53.086;21.576;2023-07-02T04:47:36;18.50;99.90
45207;DHT22;30950;53.086;21.576;2023-07-02T04:50:04;18.60;99.90
45207;DHT22;30950;53.086;21.576;2023-07-02T04:52:33;18.50;99.90
45207;DHT22;30950;53.086;21.576;2023-07-02T04:55:01;18.50;99.90
45207;DHT22;30950;53.086;21.576;2023-07-02T04:57:28;18.60;99.90
45207;DHT22;30950;53.086;21.576;2023-07-02T04:59:56;18.60;99.90
45207;DHT22;30950;53.086;21.576;2023-07-02T05:02:23;18.60;99.90
45207;DHT22;30950;53.086;21.576;2023-07-02T05:04:51;18.70;99.90
45207;DHT22;30950;53.086;21.576;2023-07-02T05:07:18;18.70;99.90
45207;DHT22;30950;53.086;21.576;2023-07-02T05:09:45;18.70;99.90
45207;DHT22;30950;53.086;21.576;2023-07-02T05:12:13;18.80;99.90
45207;DHT22;30950;53.086;21.576;2023-07-02T05:14:40;18.90;99.90
45207;DHT22;30950;53.086;21.576;2023-07-02T05:17:08;18.90;99.90
45207;DHT22;30950;53.086;21.576;2023-07-02T05:19:35;19.00;99.90
45207;DHT22;30950;53.086;21.576;2023-07-02T05:22:03;19.00;99.90
45207;DHT22;30950;53.086;21.576;2023-07-02T05:24:30;19.00;99.90
45207;DHT22;30950;53.086;21.576;2023-07-02T05:26:57;19.10;99.90
45207;DHT22;30950;53.086;21.576;2023-07-02T05:29:25;19.20;99.90
45207;DHT22;30950;53.086;21.576;2023-07-02T05:31:52;19.20;99.90
45207;DHT22;30950;53.086;21.576;2023-07-02T05:34:19;19.20;99.90
45207;DHT22;30950;53.086;21.576;2023-07-02T05:36:47;19.10;99.90
45207;DHT22;30950;53.086;21.576;2023-07-02T05:39:14;19.00;99.90
45207;DHT22;30950;53.086;21.576;2023-07-02T05:41:42;19.10;99.90
45207;DHT22;30950;53.086;21.576;2023-07-02T05:44:09;19.10;99.90
45207;DHT22;30950;53.086;21.576;2023-07-02T05:46:36;19.10;99.90
45207;DHT22;30950;53.086;21.576;2023-07-02T05:49:04;19.20;99.90
45207;DHT22;30950;53.086;21.576;2023-07-02T05:51:33;19.20;99.90
45207;DHT22;30950;53.086;21.576;2023-07-02T05:54:00;19.20;99.90
45207;DHT22;30950;53.086;21.576;2023-07-02T05:56:28;19.30;99.90
45207;DHT22;30950;53.086;21.576;2023-07-02T05:58:55;19.20;99.90
45207;DHT22;30950;53.086;21.576;2023-07-02T06:01:23;19.30;99.90
45207;DHT22;30950;53.086;21.576;2023-07-02T06:03:50;19.30;99.90
45207;DHT22;30950;53.086;21.576;2023-07-02T06:06:18;19.30;99.90
45207;DHT22;30950;53.086;21.576;2023-07-02T06:08:46;19.30;99.90
45207;DHT22;30950;53.086;21.576;2023-07-02T06:11:15;19.30;99.90
45207;DHT22;30950;53.086;21.576;2023-07-02T06:13:42;19.30;99.90
45207;DHT22;30950;53.086;21.576;2023-07-02T06:16:10;19.30;99.90
45207;DHT22;30950;53.086;21.576;2023-07-02T06:18:37;19.40;99.90
45207;DHT22;30950;53.086;21.576;2023-07-02T06:21:05;19.40;99.90
45207;DHT22;30950;53.086;21.576;2023-07-02T06:23:42;19.40;99.90
45207;DHT22;30950;53.086;21.576;2023-07-02T06:26:10;19.50;99.90
45207;DHT22;30950;53.086;21.576;2023-07-02T06:28:38;19.50;99.90
45207;DHT22;30950;53.086;21.576;2023-07-02T06:31:07;19.60;99.90
45207;DHT22;30950;53.086;21.576;2023-07-02T06:33:41;19.60;99.90
45207;DHT22;30950;53.086;21.576;2023-07-02T06:36:09;19.50;99.90
45207;DHT22;30950;53.086;21.576;2023-07-02T06:38:40;19.60;99.90
45207;DHT22;30950;53.086;21.576;2023-07-02T06:41:08;19.70;99.90
45207;DHT22;30950;53.086;21.576;2023-07-02T06:43:35;19.80;99.90
45207;DHT22;30950;53.086;21.576;2023-07-02T06:46:03;19.90;99.90
45207;DHT22;30950;53.086;21.576;2023-07-02T06:48:30;20.00;99.90
45207;DHT22;30950;53.086;21.576;2023-07-02T06:50:57;20.10;99.90
45207;DHT22;30950;53.086;21.576;2023-07-02T06:53:25;20.10;99.90
45207;DHT22;30950;53.086;21.576;2023-07-02T06:55:52;20.20;99.90
45207;DHT22;30950;53.086;21.576;2023-07-02T06:58:19;20.30;99.90
45207;DHT22;30950;53.086;21.576;2023-07-02T07:00:47;20.40;99.90
45207;DHT22;30950;53.086;21.576;2023-07-02T07:03:16;20.50;99.90
45207;DHT22;30950;53.086;21.576;2023-07-02T07:05:44;20.60;99.90
45207;DHT22;30950;53.086;21.576;2023-07-02T07:08:11;20.60;99.90
45207;DHT22;30950;53.086;21.576;2023-07-02T07:10:38;20.80;99.90
45207;DHT22;30950;53.086;21.576;2023-07-02T07:13:06;20.80;99.90
45207;DHT22;30950;53.086;21.576;2023-07-02T07:15:38;20.90;99.90
45207;DHT22;30950;53.086;21.576;2023-07-02T07:18:07;20.90;99.90
45207;DHT22;30950;53.086;21.576;2023-07-02T07:20:35;20.90;99.90
45207;DHT22;30950;53.086;21.576;2023-07-02T07:23:03;20.80;99.90
45207;DHT22;30950;53.086;21.576;2023-07-02T07:25:30;20.70;99.90
45207;DHT22;30950;53.086;21.576;2023-07-02T07:27:59;20.70;99.90
45207;DHT22;30950;53.086;21.576;2023-07-02T07:30:27;20.60;99.90
45207;DHT22;30950;53.086;21.576;2023-07-02T07:32:56;20.50;99.90
45207;DHT22;30950;53.086;21.576;2023-07-02T07:35:24;20.50;99.90
45207;DHT22;30950;53.086;21.576;2023-07-02T07:37:51;20.50;99.90
45207;DHT22;30950;53.086;21.576;2023-07-02T07:40:18;20.60;99.90
45207;DHT22;30950;53.086;21.576;2023-07-02T07:42:48;20.70;99.90
45207;DHT22;30950;53.086;21.576;2023-07-02T07:45:15;20.70;99.90
45207;DHT22;30950;53.086;21.576;2023-07-02T07:47:43;20.80;99.90
45207;DHT22;30950;53.086;21.576;2023-07-02T07:50:11;20.80;99.90
45207;DHT22;30950;53.086;21.576;2023-07-02T07:52:38;20.80;99.90
45207;DHT22;30950;53.086;21.576;2023-07-02T07:55:07;20.80;99.90
45207;DHT22;30950;53.086;21.576;2023-07-02T07:57:36;20.90;99.90
45207;DHT22;30950;53.086;21.576;2023-07-02T08:00:05;21.00;99.90
45207;DHT22;30950;53.086;21.576;2023-07-02T08:02:45;21.00;99.90
45207;DHT22;30950;53.086;21.576;2023-07-02T08:05:14;21.00;99.90
45207;DHT22;30950;53.086;21.576;2023-07-02T08:07:41;21.10;99.90
45207;DHT22;30950;53.086;21.576;2023-07-02T08:10:09;21.20;99.90
45207;DHT22;30950;53.086;21.576;2023-07-02T08:12:37;21.10;99.90
45207;DHT22;30950;53.086;21.576;2023-07-02T08:15:05;21.10;99.90
45207;DHT22;30950;53.086;21.576;2023-07-02T08:17:33;21.00;99.90
45207;DHT22;30950;53.086;21.576;2023-07-02T08:20:02;20.70;99.90
45207;DHT22;30950;53.086;21.576;2023-07-02T08:22:31;20.50;99.90
45207;DHT22;30950;53.086;21.576;2023-07-02T08:24:58;20.20;99.90
45207;DHT22;30950;53.086;21.576;2023-07-02T08:27:26;19.90;99.90
45207;DHT22;30950;53.086;21.576;2023-07-02T08:29:53;19.80;99.90
45207;DHT22;30950;53.086;21.576;2023-07-02T08:32:21;19.70;99.90
45207;DHT22;30950;53.086;21.576;2023-07-02T08:34:49;19.60;99.90
45207;DHT22;30950;53.086;21.576;2023-07-02T08:37:18;19.70;99.90
45207;DHT22;30950;53.086;21.576;2023-07-02T08:39:46;19.70;99.90
45207;DHT22;30950;53.086;21.576;2023-07-02T08:42:13;19.60;99.90
45207;DHT22;30950;53.086;21.576;2023-07-02T08:44:41;19.60;99.90
45207;DHT22;30950;53.086;21.576;2023-07-02T08:47:09;19.60;99.90
45207;DHT22;30950;53.086;21.576;2023-07-02T08:49:37;19.60;99.90
45207;DHT22;30950;53.086;21.576;2023-07-02T08:52:05;19.60;99.90
45207;DHT22;30950;53.086;21.576;2023-07-02T08:54:33;19.70;99.90
45207;DHT22;30950;53.086;21.576;2023-07-02T08:57:00;19.70;99.90
45207;DHT22;30950;53.086;21.576;2023-07-02T08:59:32;19.80;99.90
45207;DHT22;30950;53.086;21.576;2023-07-02T09:01:59;19.70;99.90
45207;DHT22;30950;53.086;21.576;2023-07-02T09:04:27;19.60;99.90
45207;DHT22;30950;53.086;21.576;2023-07-02T09:07:07;19.50;99.90
45207;DHT22;30950;53.086;21.576;2023-07-02T09:09:50;19.40;99.90
45207;DHT22;30950;53.086;21.576;2023-07-02T09:12:25;19.30;99.90
45207;DHT22;30950;53.086;21.576;2023-07-02T09:15:01;19.20;99.90
45207;DHT22;30950;53.086;21.576;2023-07-02T09:17:37;19.10;99.90
45207;DHT22;30950;53.086;21.576;2023-07-02T09:20:06;19.10;99.90
45207;DHT22;30950;53.086;21.576;2023-07-02T09:22:37;19.20;99.90
45207;DHT22;30950;53.086;21.576;2023-07-02T09:25:07;19.50;99.90
45207;DHT22;30950;53.086;21.576;2023-07-02T09:27:39;19.70;99.90
45207;DHT22;30950;53.086;21.576;2023-07-02T09:30:14;20.00;99.90
45207;DHT22;30950;53.086;21.576;2023-07-02T09:32:44;20.20;99.90
45207;DHT22;30950;53.086;21.576;2023-07-02T09:35:14;20.30;99.90
45207;DHT22;30950;53.086;21.576;2023-07-02T09:37:45;20.40;99.90
45207;DHT22;30950;53.086;21.576;2023-07-02T09:40:14;20.40;99.90
45207;DHT22;30950;53.086;21.576;2023-07-02T09:42:42;20.30;99.90
45207;DHT22;30950;53.086;21.576;2023-07-02T09:45:11;20.20;99.90
45207;DHT22;30950;53.086;21.576;2023-07-02T09:47:44;20.20;99.90
45207;DHT22;30950;53.086;21.576;2023-07-02T09:50:16;20.10;99.90
45207;DHT22;30950;53.086;21.576;2023-07-02T09:52:45;20.10;99.90
45207;DHT22;30950;53.086;21.576;2023-07-02T09:55:14;20.20;99.90
45207;DHT22;30950;53.086;21.576;2023-07-02T09:57:45;20.30;99.90
45207;DHT22;30950;53.086;21.576;2023-07-02T10:00:14;20.40;99.90
45207;DHT22;30950;53.086;21.576;2023-07-02T10:02:48;20.60;99.90
45207;DHT22;30950;53.086;21.576;2023-07-02T10:05:31;20.90;99.90
45207;DHT22;30950;53.086;21.576;2023-07-02T10:08:12;21.10;99.90
45207;DHT22;30950;53.086;21.576;2023-07-02T10:10:48;21.30;99.90
45207;DHT22;30950;53.086;21.576;2023-07-02T10:13:27;21.40;99.90
45207;DHT22;30950;53.086;21.576;2023-07-02T10:16:01;21.60;99.90
45207;DHT22;30950;53.086;21.576;2023-07-02T10:18:29;21.90;99.90
45207;DHT22;30950;53.086;21.576;2023-07-02T10:20:56;22.00;99.90
45207;DHT22;30950;53.086;21.576;2023-07-02T10:23:34;22.20;99.90
45207;DHT22;30950;53.086;21.576;2023-07-02T10:26:18;22.50;99.90
45207;DHT22;30950;53.086;21.576;2023-07-02T10:28:59;22.60;99.90
45207;DHT22;30950;53.086;21.576;2023-07-02T10:31:27;22.70;99.90
45207;DHT22;30950;53.086;21.576;2023-07-02T10:33:54;22.90;99.90
45207;DHT22;30950;53.086;21.576;2023-07-02T10:36:23;23.10;99.90
45207;DHT22;30950;53.086;21.576;2023-07-02T10:38:51;23.30;97.30
45207;DHT22;30950;53.086;21.576;2023-07-02T10:41:26;23.60;91.90
45207;DHT22;30950;53.086;21.576;2023-07-02T10:43:54;24.00;89.50
45207;DHT22;30950;53.086;21.576;2023-07-02T10:46:32;24.30;85.90
45207;DHT22;30950;53.086;21.576;2023-07-02T10:48:59;24.30;78.60
45207;DHT22;30950;53.086;21.576;2023-07-02T10:51:27;24.30;77.90
45207;DHT22;30950;53.086;21.576;2023-07-02T10:54:00;24.20;76.30
45207;DHT22;30950;53.086;21.576;2023-07-02T10:56:28;24.20;77.30
45207;DHT22;30950;53.086;21.576;2023-07-02T10:58:55;24.20;78.40
45207;DHT22;30950;53.086;21.576;2023-07-02T11:01:25;24.20;82.70
45207;DHT22;30950;53.086;21.576;2023-07-02T11:04:01;24.20;88.20
45207;DHT22;30950;53.086;21.576;2023-07-02T11:06:32;24.00;90.90
45207;DHT22;30950;53.086;21.576;2023-07-02T11:09:00;23.70;92.20
45207;DHT22;30950;53.086;21.576;2023-07-02T11:11:28;23.50;93.50
45207;DHT22;30950;53.086;21.576;2023-07-02T11:13:56;23.30;94.70
45207;DHT22;30950;53.086;21.576;2023-07-02T11:16:25;23.10;96.10
45207;DHT22;30950;53.086;21.576;2023-07-02T11:18:54;22.90;96.90
45207;DHT22;30950;53.086;21.576;2023-07-02T11:21:34;22.60;98.20
45207;DHT22;30950;53.086;21.576;2023-07-02T11:24:08;22.50;99.90
45207;DHT22;30950;53.086;21.576;2023-07-02T11:26:40;22.50;99.90
45207;DHT22;30950;53.086;21.576;2023-07-02T11:29:11;22.50;99.90
45207;DHT22;30950;53.086;21.576;2023-07-02T11:31:39;22.50;99.90
45207;DHT22;30950;53.086;21.576;2023-07-02T11:34:21;22.60;99.90
45207;DHT22;30950;53.086;21.576;2023-07-02T11:36:51;22.90;99.90
45207;DHT22;30950;53.086;21.576;2023-07-02T11:39:21;23.00;98.80
45207;DHT22;30950;53.086;21.576;2023-07-02T11:41:49;23.20;98.80
45207;DHT22;30950;53.086;21.576;2023-07-02T11:44:17;23.30;96.60
45207;DHT22;30950;53.086;21.576;2023-07-02T11:46:45;23.40;96.30
45207;DHT22;30950;53.086;21.576;2023-07-02T11:49:14;23.50;94.50
45207;DHT22;30950;53.086;21.576;2023-07-02T11:51:43;23.70;92.70
45207;DHT22;30950;53.086;21.576;2023-07-02T11:54:17;23.70;92.00
45207;DHT22;30950;53.086;21.576;2023-07-02T11:56:46;23.60;92.50
45207;DHT22;30950;53.086;21.576;2023-07-02T11:59:13;23.60;92.60
45207;DHT22;30950;53.086;21.576;2023-07-02T12:01:41;23.70;91.90
45207;DHT22;30950;53.086;21.576;2023-07-02T12:04:10;23.70;91.70
45207;DHT22;30950;53.086;21.576;2023-07-02T12:06:39;23.80;90.30
45207;DHT22;30950;53.086;21.576;2023-07-02T12:09:06;24.00;82.90
45207;DHT22;30950;53.086;21.576;2023-07-02T12:11:34;24.10;79.00
45207;DHT22;30950;53.086;21.576;2023-07-02T12:14:01;24.20;73.90
45207;DHT22;30950;53.086;21.576;2023-07-02T12:16:29;24.30;71.00
45207;DHT22;30950;53.086;21.576;2023-07-02T12:18:56;24.50;70.30
45207;DHT22;30950;53.086;21.576;2023-07-02T12:21:24;24.50;68.70
45207;DHT22;30950;53.086;21.576;2023-07-02T12:23:51;24.50;66.90
45207;DHT22;30950;53.086;21.576;2023-07-02T12:26:18;24.70;65.20
45207;DHT22;30950;53.086;21.576;2023-07-02T12:28:46;24.80;62.20
45207;DHT22;30950;53.086;21.576;2023-07-02T12:31:13;24.80;61.10
45207;DHT22;30950;53.086;21.576;2023-07-02T12:33:41;24.90;61.70
45207;DHT22;30950;53.086;21.576;2023-07-02T12:36:08;25.00;59.60
45207;DHT22;30950;53.086;21.576;2023-07-02T12:38:36;25.30;59.60
45207;DHT22;30950;53.086;21.576;2023-07-02T12:41:03;25.70;57.70
45207;DHT22;30950;53.086;21.576;2023-07-02T12:43:30;26.10;57.00
45207;DHT22;30950;53.086;21.576;2023-07-02T12:45:58;26.60;56.60
45207;DHT22;30950;53.086;21.576;2023-07-02T12:48:26;26.90;55.40
45207;DHT22;30950;53.086;21.576;2023-07-02T12:50:58;26.80;53.70
45207;DHT22;30950;53.086;21.576;2023-07-02T12:53:27;26.60;52.50
45207;DHT22;30950;53.086;21.576;2023-07-02T12:55:54;26.10;52.00
45207;DHT22;30950;53.086;21.576;2023-07-02T12:58:22;25.90;52.60
45207;DHT22;30950;53.086;21.576;2023-07-02T13:00:52;25.80;53.60
45207;DHT22;30950;53.086;21.576;2023-07-02T13:03:20;25.90;54.20
45207;DHT22;30950;53.086;21.576;2023-07-02T13:05:52;25.90;53.20
45207;DHT22;30950;53.086;21.576;2023-07-02T13:08:19;25.70;53.00
45207;DHT22;30950;53.086;21.576;2023-07-02T13:10:47;25.50;51.40
45207;DHT22;30950;53.086;21.576;2023-07-02T13:13:15;25.50;51.60
45207;DHT22;30950;53.086;21.576;2023-07-02T13:15:50;25.70;52.10
45207;DHT22;30950;53.086;21.576;2023-07-02T13:18:18;25.90;51.20
45207;DHT22;30950;53.086;21.576;2023-07-02T13:20:46;26.30;50.20
45207;DHT22;30950;53.086;21.576;2023-07-02T13:23:13;26.50;50.00
45207;DHT22;30950;53.086;21.576;2023-07-02T13:25:40;27.00;50.00
45207;DHT22;30950;53.086;21.576;2023-07-02T13:28:09;27.50;48.50
45207;DHT22;30950;53.086;21.576;2023-07-02T13:30:37;27.80;47.90
45207;DHT22;30950;53.086;21.576;2023-07-02T13:33:04;28.20;47.20
45207;DHT22;30950;53.086;21.576;2023-07-02T13:35:31;28.20;44.70
45207;DHT22;30950;53.086;21.576;2023-07-02T13:37:59;28.00;45.30
45207;DHT22;30950;53.086;21.576;2023-07-02T13:40:26;27.90;45.70
45207;DHT22;30950;53.086;21.576;2023-07-02T13:42:54;27.70;45.70
45207;DHT22;30950;53.086;21.576;2023-07-02T13:45:23;27.80;46.20
45207;DHT22;30950;53.086;21.576;2023-07-02T13:47:50;28.00;46.20
45207;DHT22;30950;53.086;21.576;2023-07-02T13:50:18;28.10;45.90
45207;DHT22;30950;53.086;21.576;2023-07-02T13:52:45;27.90;45.60
45207;DHT22;30950;53.086;21.576;2023-07-02T13:55:13;27.70;45.60
45207;DHT22;30950;53.086;21.576;2023-07-02T13:57:41;27.60;45.30
45207;DHT22;30950;53.086;21.576;2023-07-02T14:00:09;27.30;45.70
45207;DHT22;30950;53.086;21.576;2023-07-02T14:02:36;26.90;46.60
45207;DHT22;30950;53.086;21.576;2023-07-02T14:05:04;26.60;46.60
45207;DHT22;30950;53.086;21.576;2023-07-02T14:07:32;26.70;46.60
45207;DHT22;30950;53.086;21.576;2023-07-02T14:09:59;26.60;45.60
45207;DHT22;30950;53.086;21.576;2023-07-02T14:12:26;26.60;46.40
45207;DHT22;30950;53.086;21.576;2023-07-02T14:14:54;26.70;45.60
45207;DHT22;30950;53.086;21.576;2023-07-02T14:17:22;26.70;46.10
45207;DHT22;30950;53.086;21.576;2023-07-02T14:19:53;26.60;46.30
45207;DHT22;30950;53.086;21.576;2023-07-02T14:22:20;26.30;46.00
45207;DHT22;30950;53.086;21.576;2023-07-02T14:24:47;26.10;47.00
45207;DHT22;30950;53.086;21.576;2023-07-02T14:27:15;26.10;47.40
45207;DHT22;30950;53.086;21.576;2023-07-02T14:29:42;26.00;47.10
45207;DHT22;30950;53.086;21.576;2023-07-02T14:32:10;25.90;47.30
45207;DHT22;30950;53.086;21.576;2023-07-02T14:34:37;25.80;48.40
45207;DHT22;30950;53.086;21.576;2023-07-02T14:37:05;25.50;48.00
45207;DHT22;30950;53.086;21.576;2023-07-02T14:39:32;25.30;48.30
45207;DHT22;30950;53.086;21.576;2023-07-02T14:42:00;25.10;49.10
45207;DHT22;30950;53.086;21.576;2023-07-02T14:44:27;25.30;50.00
45207;DHT22;30950;53.086;21.576;2023-07-02T14:46:54;25.50;49.80
45207;DHT22;30950;53.086;21.576;2023-07-02T14:49:22;25.60;50.20
45207;DHT22;30950;53.086;21.576;2023-07-02T14:51:49;26.00;49.80
45207;DHT22;30950;53.086;21.576;2023-07-02T14:54:17;26.50;49.10
45207;DHT22;30950;53.086;21.576;2023-07-02T14:56:45;27.00;48.60
45207;DHT22;30950;53.086;21.576;2023-07-02T14:59:13;27.40;49.00
45207;DHT22;30950;53.086;21.576;2023-07-02T15:01:41;27.50;47.30
45207;DHT22;30950;53.086;21.576;2023-07-02T15:04:08;27.60;47.10
45207;DHT22;30950;53.086;21.576;2023-07-02T15:06:36;27.50;46.20
45207;DHT22;30950;53.086;21.576;2023-07-02T15:09:03;27.50;45.70
45207;DHT22;30950;53.086;21.576;2023-07-02T15:11:31;27.30;46.00
45207;DHT22;30950;53.086;21.576;2023-07-02T15:13:58;27.30;45.60
45207;DHT22;30950;53.086;21.576;2023-07-02T15:16:26;27.20;45.70
45207;DHT22;30950;53.086;21.576;2023-07-02T15:18:53;27.20;46.30
45207;DHT22;30950;53.086;21.576;2023-07-02T15:21:21;27.30;46.70
45207;DHT22;30950;53.086;21.576;2023-07-02T15:23:49;27.20;45.60